sensor_id;sensor_type;location;lat;lon;timestamp;P1;durP1;ratioP1;P2;durP2;ratioP2
76574;SDS011;65439;50.948;6.988;2023-04-01T00:01:56;2.20;;;1.50;;
76574;SDS011;65439;50.948;6.988;2023-04-01T00:04:22;3.80;;;1.53;;
76574;SDS011;65439;50.948;6.988;2023-04-01T00:06:47;2.03;;;1.40;;
76574;SDS011;65439;50.948;6.988;2023-04-01T00:09:12;3.90;;;1.23;;
76574;SDS011;65439;50.948;6.988;2023-04-01T00:11:38;2.08;;;1.52;;
76574;SDS011;65439;50.948;6.988;2023-04-01T00:14:04;3.42;;;2.33;;
76574;SDS011;65439;50.948;6.988;2023-04-01T00:16:30;5.35;;;1.33;;
76574;SDS011;65439;50.948;6.988;2023-04-01T00:18:55;7.72;;;2.40;;
76574;SDS011;65439;50.948;6.988;2023-04-01T00:21:21;3.47;;;1.70;;
76574;SDS011;65439;50.948;6.988;2023-04-01T00:23:47;2.92;;;1.42;;
76574;SDS011;65439;50.948;6.988;2023-04-01T00:26:13;2.13;;;1.30;;
76574;SDS011;65439;50.948;6.988;2023-04-01T00:28:39;1.65;;;1.27;;
76574;SDS011;65439;50.948;6.988;2023-04-01T00:31:06;1.42;;;1.20;;
76574;SDS011;65439;50.948;6.988;2023-04-01T00:33:32;1.38;;;1.20;;
76574;SDS011;65439;50.948;6.988;2023-04-01T00:36:05;1.57;;;1.30;;
76574;SDS011;65439;50.948;6.988;2023-04-01T00:38:33;3.40;;;1.98;;
76574;SDS011;65439;50.948;6.988;2023-04-01T00:40:59;2.03;;;1.08;;
76574;SDS011;65439;50.948;6.988;2023-04-01T00:43:25;3.00;;;1.35;;
76574;SDS011;65439;50.948;6.988;2023-04-01T00:45:50;1.88;;;1.08;;
76574;SDS011;65439;50.948;6.988;2023-04-01T00:48:17;2.03;;;1.83;;
76574;SDS011;65439;50.948;6.988;2023-04-01T00:50:47;1.58;;;1.40;;
76574;SDS011;65439;50.948;6.988;2023-04-01T00:53:14;2.17;;;1.92;;
76574;SDS011;65439;50.948;6.988;2023-04-01T00:55:42;2.10;;;1.17;;
76574;SDS011;65439;50.948;6.988;2023-04-01T00:58:11;3.40;;;1.50;;
76574;SDS011;65439;50.948;6.988;2023-04-01T01:00:39;1.20;;;1.10;;
76574;SDS011;65439;50.948;6.988;2023-04-01T01:03:05;2.80;;;1.08;;
76574;SDS011;65439;50.948;6.988;2023-04-01T01:05:36;1.25;;;1.13;;
76574;SDS011;65439;50.948;6.988;2023-04-01T01:08:52;1.38;;;1.27;;
76574;SDS011;65439;50.948;6.988;2023-04-01T01:12:03;1.30;;;1.20;;
76574;SDS011;65439;50.948;6.988;2023-04-01T01:14:39;1.30;;;1.20;;
76574;SDS011;65439;50.948;6.988;2023-04-01T01:20:13;1.25;;;1.15;;
76574;SDS011;65439;50.948;6.988;2023-04-01T01:29:08;2.40;;;2.22;;
76574;SDS011;65439;50.948;6.988;2023-04-01T01:36:44;1.15;;;0.85;;
76574;SDS011;65439;50.948;6.988;2023-04-01T01:39:11;2.10;;;1.10;;
76574;SDS011;65439;50.948;6.988;2023-04-01T01:41:37;1.23;;;1.10;;
76574;SDS011;65439;50.948;6.988;2023-04-01T01:44:04;1.48;;;0.95;;
76574;SDS011;65439;50.948;6.988;2023-04-01T01:46:31;2.97;;;1.30;;
76574;SDS011;65439;50.948;6.988;2023-04-01T01:48:57;1.88;;;1.65;;
76574;SDS011;65439;50.948;6.988;2023-04-01T01:53:50;1.27;;;1.10;;
76574;SDS011;65439;50.948;6.988;2023-04-01T01:56:16;2.73;;;1.37;;
76574;SDS011;65439;50.948;6.988;2023-04-01T01:58:43;1.58;;;1.38;;
76574;SDS011;65439;50.948;6.988;2023-04-01T02:01:12;1.45;;;1.08;;
76574;SDS011;65439;50.948;6.988;2023-04-01T02:03:39;1.95;;;1.83;;
76574;SDS011;65439;50.948;6.988;2023-04-01T02:06:07;3.30;;;1.23;;
76574;SDS011;65439;50.948;6.988;2023-04-01T02:08:41;3.10;;;1.00;;
76574;SDS011;65439;50.948;6.988;2023-04-01T02:11:24;3.47;;;1.45;;
76574;SDS011;65439;50.948;6.988;2023-04-01T02:13:53;1.77;;;1.58;;
76574;SDS011;65439;50.948;6.988;2023-04-01T02:16:44;1.52;;;1.40;;
76574;SDS011;65439;50.948;6.988;2023-04-01T02:19:15;2.15;;;1.83;;
76574;SDS011;65439;50.948;6.988;2023-04-01T02:21:47;1.17;;;1.08;;
76574;SDS011;65439;50.948;6.988;2023-04-01T02:24:14;2.35;;;1.15;;
76574;SDS011;65439;50.948;6.988;2023-04-01T02:26:41;4.43;;;1.63;;
76574;SDS011;65439;50.948;6.988;2023-04-01T02:29:06;1.23;;;1.13;;
76574;SDS011;65439;50.948;6.988;2023-04-01T02:33:58;1.67;;;1.57;;
76574;SDS011;65439;50.948;6.988;2023-04-01T02:36:24;2.60;;;1.80;;
76574;SDS011;65439;50.948;6.988;2023-04-01T02:38:49;1.73;;;1.25;;
76574;SDS011;65439;50.948;6.988;2023-04-01T02:41:15;2.03;;;1.42;;
76574;SDS011;65439;50.948;6.988;2023-04-01T02:43:41;4.00;;;1.30;;
76574;SDS011;65439;50.948;6.988;2023-04-01T02:46:06;1.87;;;1.10;;
76574;SDS011;65439;50.948;6.988;2023-04-01T02:48:33;0.95;;;0.93;;
76574;SDS011;65439;50.948;6.988;2023-04-01T02:50:58;1.67;;;1.57;;
76574;SDS011;65439;50.948;6.988;2023-04-01T02:53:23;1.25;;;1.15;;
76574;SDS011;65439;50.948;6.988;2023-04-01T02:55:49;1.40;;;1.10;;
76574;SDS011;65439;50.948;6.988;2023-04-01T02:58:16;1.25;;;1.15;;
76574;SDS011;65439;50.948;6.988;2023-04-01T03:00:42;1.02;;;0.63;;
76574;SDS011;65439;50.948;6.988;2023-04-01T03:03:08;1.52;;;1.42;;
76574;SDS011;65439;50.948;6.988;2023-04-01T03:05:33;2.70;;;1.33;;
76574;SDS011;65439;50.948;6.988;2023-04-01T03:07:58;1.37;;;1.27;;
76574;SDS011;65439;50.948;6.988;2023-04-01T03:10:24;2.23;;;1.43;;
76574;SDS011;65439;50.948;6.988;2023-04-01T03:12:49;2.63;;;1.40;;
76574;SDS011;65439;50.948;6.988;2023-04-01T03:15:14;2.83;;;1.30;;
76574;SDS011;65439;50.948;6.988;2023-04-01T03:17:41;1.30;;;1.20;;
76574;SDS011;65439;50.948;6.988;2023-04-01T03:20:06;1.00;;;1.00;;
76574;SDS011;65439;50.948;6.988;2023-04-01T03:22:33;1.35;;;1.25;;
76574;SDS011;65439;50.948;6.988;2023-04-01T03:24:59;1.98;;;1.40;;
76574;SDS011;65439;50.948;6.988;2023-04-01T03:27:24;1.40;;;1.30;;
76574;SDS011;65439;50.948;6.988;2023-04-01T03:29:49;3.13;;;1.00;;
76574;SDS011;65439;50.948;6.988;2023-04-01T03:32:15;1.60;;;1.20;;
76574;SDS011;65439;50.948;6.988;2023-04-01T03:34:40;1.17;;;1.10;;
76574;SDS011;65439;50.948;6.988;2023-04-01T03:37:05;1.50;;;1.40;;
76574;SDS011;65439;50.948;6.988;2023-04-01T03:39:31;2.03;;;1.27;;
76574;SDS011;65439;50.948;6.988;2023-04-01T03:41:56;1.50;;;1.10;;
76574;SDS011;65439;50.948;6.988;2023-04-01T03:44:21;1.10;;;1.00;;
76574;SDS011;65439;50.948;6.988;2023-04-01T03:46:47;0.83;;;0.60;;
76574;SDS011;65439;50.948;6.988;2023-04-01T03:49:12;1.43;;;1.33;;
76574;SDS011;65439;50.948;6.988;2023-04-01T03:51:41;1.83;;;1.70;;
76574;SDS011;65439;50.948;6.988;2023-04-01T03:54:07;2.28;;;1.10;;
76574;SDS011;65439;50.948;6.988;2023-04-01T03:56:33;1.40;;;1.27;;
76574;SDS011;65439;50.948;6.988;2023-04-01T03:58:58;1.27;;;1.17;;
76574;SDS011;65439;50.948;6.988;2023-04-01T04:01:28;1.63;;;1.20;;
76574;SDS011;65439;50.948;6.988;2023-04-01T04:03:54;3.28;;;1.17;;
76574;SDS011;65439;50.948;6.988;2023-04-01T04:06:20;1.85;;;1.30;;
76574;SDS011;65439;50.948;6.988;2023-04-01T04:08:45;1.60;;;1.50;;
76574;SDS011;65439;50.948;6.988;2023-04-01T04:11:11;1.25;;;1.15;;
76574;SDS011;65439;50.948;6.988;2023-04-01T04:13:36;1.10;;;1.10;;
76574;SDS011;65439;50.948;6.988;2023-04-01T04:16:02;1.42;;;1.25;;
76574;SDS011;65439;50.948;6.988;2023-04-01T04:18:28;1.77;;;1.20;;
76574;SDS011;65439;50.948;6.988;2023-04-01T04:20:54;3.30;;;1.27;;
76574;SDS011;65439;50.948;6.988;2023-04-01T04:23:19;4.65;;;1.40;;
76574;SDS011;65439;50.948;6.988;2023-04-01T04:28:24;3.75;;;1.38;;
76574;SDS011;65439;50.948;6.988;2023-04-01T04:30:49;1.30;;;1.20;;
76574;SDS011;65439;50.948;6.988;2023-04-01T04:33:15;1.93;;;1.40;;
76574;SDS011;65439;50.948;6.988;2023-04-01T04:35:40;1.35;;;1.08;;
76574;SDS011;65439;50.948;6.988;2023-04-01T04:38:05;1.30;;;1.20;;
76574;SDS011;65439;50.948;6.988;2023-04-01T04:40:30;2.38;;;1.30;;
76574;SDS011;65439;50.948;6.988;2023-04-01T04:42:56;0.83;;;0.80;;
76574;SDS011;65439;50.948;6.988;2023-04-01T04:45:21;1.80;;;1.60;;
76574;SDS011;65439;50.948;6.988;2023-04-01T04:47:46;1.20;;;1.10;;
76574;SDS011;65439;50.948;6.988;2023-04-01T04:50:12;1.83;;;1.40;;
76574;SDS011;65439;50.948;6.988;2023-04-01T04:52:37;1.05;;;0.95;;
76574;SDS011;65439;50.948;6.988;2023-04-01T04:55:03;1.03;;;0.80;;
76574;SDS011;65439;50.948;6.988;2023-04-01T04:57:28;1.52;;;1.30;;
76574;SDS011;65439;50.948;6.988;2023-04-01T04:59:54;2.13;;;1.25;;
76574;SDS011;65439;50.948;6.988;2023-04-01T05:02:19;1.43;;;1.33;;
76574;SDS011;65439;50.948;6.988;2023-04-01T05:04:44;1.97;;;1.23;;
76574;SDS011;65439;50.948;6.988;2023-04-01T05:07:10;1.30;;;1.17;;
76574;SDS011;65439;50.948;6.988;2023-04-01T05:09:35;1.90;;;1.42;;
76574;SDS011;65439;50.948;6.988;2023-04-01T05:12:00;2.17;;;1.70;;
76574;SDS011;65439;50.948;6.988;2023-04-01T05:14:26;3.03;;;2.03;;
76574;SDS011;65439;50.948;6.988;2023-04-01T05:16:51;2.93;;;1.70;;
76574;SDS011;65439;50.948;6.988;2023-04-01T05:19:16;1.30;;;1.20;;
76574;SDS011;65439;50.948;6.988;2023-04-01T05:21:42;3.07;;;1.67;;
76574;SDS011;65439;50.948;6.988;2023-04-01T05:24:07;2.23;;;1.37;;
76574;SDS011;65439;50.948;6.988;2023-04-01T05:28:59;1.48;;;1.38;;
76574;SDS011;65439;50.948;6.988;2023-04-01T05:31:25;2.50;;;1.13;;
76574;SDS011;65439;50.948;6.988;2023-04-01T05:33:50;1.20;;;1.10;;
76574;SDS011;65439;50.948;6.988;2023-04-01T05:36:15;1.98;;;1.20;;
76574;SDS011;65439;50.948;6.988;2023-04-01T05:38:41;1.85;;;1.75;;
76574;SDS011;65439;50.948;6.988;2023-04-01T05:41:07;3.00;;;1.73;;
76574;SDS011;65439;50.948;6.988;2023-04-01T05:43:35;1.20;;;1.10;;
76574;SDS011;65439;50.948;6.988;2023-04-01T05:46:01;1.50;;;1.40;;
76574;SDS011;65439;50.948;6.988;2023-04-01T05:48:26;2.58;;;1.83;;
76574;SDS011;65439;50.948;6.988;2023-04-01T05:50:51;1.50;;;1.40;;
76574;SDS011;65439;50.948;6.988;2023-04-01T05:53:17;1.50;;;1.40;;
76574;SDS011;65439;50.948;6.988;2023-04-01T05:55:42;1.33;;;1.23;;
76574;SDS011;65439;50.948;6.988;2023-04-01T05:58:08;2.83;;;1.55;;
76574;SDS011;65439;50.948;6.988;2023-04-01T06:00:33;2.83;;;1.43;;
76574;SDS011;65439;50.948;6.988;2023-04-01T06:02:59;2.33;;;1.73;;
76574;SDS011;65439;50.948;6.988;2023-04-01T06:05:26;2.95;;;1.60;;
76574;SDS011;65439;50.948;6.988;2023-04-01T06:08:00;1.55;;;1.40;;
76574;SDS011;65439;50.948;6.988;2023-04-01T06:10:51;1.92;;;1.67;;
76574;SDS011;65439;50.948;6.988;2023-04-01T06:16:07;2.42;;;1.70;;
76574;SDS011;65439;50.948;6.988;2023-04-01T06:18:50;1.55;;;1.45;;
76574;SDS011;65439;50.948;6.988;2023-04-01T06:21:30;1.92;;;1.42;;
76574;SDS011;65439;50.948;6.988;2023-04-01T06:27:12;3.25;;;2.00;;
76574;SDS011;65439;50.948;6.988;2023-04-01T06:29:56;2.08;;;1.42;;
76574;SDS011;65439;50.948;6.988;2023-04-01T06:35:15;1.88;;;1.55;;
76574;SDS011;65439;50.948;6.988;2023-04-01T06:49:00;1.80;;;1.70;;
76574;SDS011;65439;50.948;6.988;2023-04-01T06:51:33;2.00;;;1.83;;
76574;SDS011;65439;50.948;6.988;2023-04-01T06:54:16;5.10;;;2.42;;
76574;SDS011;65439;50.948;6.988;2023-04-01T06:56:45;2.42;;;1.40;;
76574;SDS011;65439;50.948;6.988;2023-04-01T06:59:18;2.30;;;1.92;;
76574;SDS011;65439;50.948;6.988;2023-04-01T07:01:53;2.47;;;2.20;;
76574;SDS011;65439;50.948;6.988;2023-04-01T07:06:58;4.03;;;1.88;;
76574;SDS011;65439;50.948;6.988;2023-04-01T07:09:37;3.28;;;1.90;;
76574;SDS011;65439;50.948;6.988;2023-04-01T07:12:10;3.67;;;1.80;;
76574;SDS011;65439;50.948;6.988;2023-04-01T07:14:40;3.17;;;2.88;;
76574;SDS011;65439;50.948;6.988;2023-04-01T07:17:15;3.25;;;2.30;;
76574;SDS011;65439;50.948;6.988;2023-04-01T07:19:45;3.17;;;2.67;;
76574;SDS011;65439;50.948;6.988;2023-04-01T07:24:41;3.88;;;2.80;;
76574;SDS011;65439;50.948;6.988;2023-04-01T07:27:09;3.80;;;2.35;;
76574;SDS011;65439;50.948;6.988;2023-04-01T07:29:36;3.05;;;2.10;;
76574;SDS011;65439;50.948;6.988;2023-04-01T07:32:16;2.63;;;2.03;;
76574;SDS011;65439;50.948;6.988;2023-04-01T07:37:47;2.50;;;2.20;;
76574;SDS011;65439;50.948;6.988;2023-04-01T07:40:32;4.25;;;2.25;;
76574;SDS011;65439;50.948;6.988;2023-04-01T07:43:16;3.78;;;2.65;;
76574;SDS011;65439;50.948;6.988;2023-04-01T07:51:56;2.63;;;2.42;;
76574;SDS011;65439;50.948;6.988;2023-04-01T07:57:07;3.50;;;2.80;;
76574;SDS011;65439;50.948;6.988;2023-04-01T07:59:49;4.57;;;2.92;;
76574;SDS011;65439;50.948;6.988;2023-04-01T08:07:34;2.60;;;2.33;;
76574;SDS011;65439;50.948;6.988;2023-04-01T08:10:17;2.85;;;2.45;;
76574;SDS011;65439;50.948;6.988;2023-04-01T08:12:55;2.22;;;1.73;;
76574;SDS011;65439;50.948;6.988;2023-04-01T08:15:32;3.45;;;2.13;;
76574;SDS011;65439;50.948;6.988;2023-04-01T08:20:56;2.70;;;2.20;;
76574;SDS011;65439;50.948;6.988;2023-04-01T08:23:24;3.45;;;2.80;;
76574;SDS011;65439;50.948;6.988;2023-04-01T08:25:55;5.88;;;2.10;;
76574;SDS011;65439;50.948;6.988;2023-04-01T08:33:30;2.80;;;2.10;;
76574;SDS011;65439;50.948;6.988;2023-04-01T08:36:02;2.17;;;1.88;;
76574;SDS011;65439;50.948;6.988;2023-04-01T08:38:36;2.83;;;1.98;;
76574;SDS011;65439;50.948;6.988;2023-04-01T08:54:19;2.42;;;1.75;;
76574;SDS011;65439;50.948;6.988;2023-04-01T09:02:28;2.08;;;1.65;;
76574;SDS011;65439;50.948;6.988;2023-04-01T09:10:52;2.00;;;1.80;;
76574;SDS011;65439;50.948;6.988;2023-04-01T09:18:50;2.53;;;1.40;;
76574;SDS011;65439;50.948;6.988;2023-04-01T09:24:44;1.85;;;1.75;;
76574;SDS011;65439;50.948;6.988;2023-04-01T09:30:10;2.08;;;1.80;;
76574;SDS011;65439;50.948;6.988;2023-04-01T09:35:38;2.38;;;1.70;;
76574;SDS011;65439;50.948;6.988;2023-04-01T09:45:34;2.07;;;1.60;;
76574;SDS011;65439;50.948;6.988;2023-04-01T09:50:59;2.63;;;1.77;;
76574;SDS011;65439;50.948;6.988;2023-04-01T09:53:59;2.72;;;2.53;;
76574;SDS011;65439;50.948;6.988;2023-04-01T09:56:52;2.33;;;1.98;;
76574;SDS011;65439;50.948;6.988;2023-04-01T10:02:25;2.92;;;2.60;;
76574;SDS011;65439;50.948;6.988;2023-04-01T10:38:39;2.47;;;1.77;;
76574;SDS011;65439;50.948;6.988;2023-04-01T10:41:27;2.42;;;1.95;;
76574;SDS011;65439;50.948;6.988;2023-04-01T10:47:02;2.65;;;2.17;;
76574;SDS011;65439;50.948;6.988;2023-04-01T10:49:58;2.97;;;2.63;;
76574;SDS011;65439;50.948;6.988;2023-04-01T11:01:06;2.80;;;2.50;;
76574;SDS011;65439;50.948;6.988;2023-04-01T11:09:32;2.67;;;2.20;;
76574;SDS011;65439;50.948;6.988;2023-04-01T11:12:51;3.38;;;2.72;;
76574;SDS011;65439;50.948;6.988;2023-04-01T11:15:16;2.53;;;2.33;;
76574;SDS011;65439;50.948;6.988;2023-04-01T11:18:05;2.30;;;2.03;;
76574;SDS011;65439;50.948;6.988;2023-04-01T11:26:46;2.75;;;2.13;;
76574;SDS011;65439;50.948;6.988;2023-04-01T11:35:16;2.90;;;2.00;;
76574;SDS011;65439;50.948;6.988;2023-04-01T11:41:15;1.90;;;1.70;;
76574;SDS011;65439;50.948;6.988;2023-04-01T11:43:34;2.55;;;2.35;;
76574;SDS011;65439;50.948;6.988;2023-04-01T11:46:10;3.63;;;2.33;;
76574;SDS011;65439;50.948;6.988;2023-04-01T11:57:07;2.28;;;1.88;;
76574;SDS011;65439;50.948;6.988;2023-04-01T12:02:42;2.42;;;1.70;;
76574;SDS011;65439;50.948;6.988;2023-04-01T12:05:19;2.13;;;1.92;;
76574;SDS011;65439;50.948;6.988;2023-04-01T12:16:55;2.17;;;1.98;;
76574;SDS011;65439;50.948;6.988;2023-04-01T12:19:48;3.30;;;2.33;;
76574;SDS011;65439;50.948;6.988;2023-04-01T12:25:14;2.22;;;1.88;;
76574;SDS011;65439;50.948;6.988;2023-04-01T12:30:21;2.10;;;1.70;;
76574;SDS011;65439;50.948;6.988;2023-04-01T12:41:37;2.40;;;2.20;;
76574;SDS011;65439;50.948;6.988;2023-04-01T12:44:23;2.42;;;1.80;;
76574;SDS011;65439;50.948;6.988;2023-04-01T12:49:56;2.42;;;2.00;;
76574;SDS011;65439;50.948;6.988;2023-04-01T12:52:39;1.80;;;1.70;;
76574;SDS011;65439;50.948;6.988;2023-04-01T12:55:40;2.38;;;2.00;;
76574;SDS011;65439;50.948;6.988;2023-04-01T12:58:27;2.03;;;1.77;;
76574;SDS011;65439;50.948;6.988;2023-04-01T13:06:07;2.42;;;2.22;;
76574;SDS011;65439;50.948;6.988;2023-04-01T13:08:43;3.90;;;2.15;;
76574;SDS011;65439;50.948;6.988;2023-04-01T13:14:21;2.55;;;2.33;;
76574;SDS011;65439;50.948;6.988;2023-04-01T13:17:12;2.63;;;2.17;;
76574;SDS011;65439;50.948;6.988;2023-04-01T13:19:50;2.53;;;2.00;;
76574;SDS011;65439;50.948;6.988;2023-04-01T13:22:20;4.18;;;2.50;;
76574;SDS011;65439;50.948;6.988;2023-04-01T13:25:27;2.42;;;2.08;;
76574;SDS011;65439;50.948;6.988;2023-04-01T13:28:06;2.70;;;2.30;;
76574;SDS011;65439;50.948;6.988;2023-04-01T13:33:15;3.63;;;2.78;;
76574;SDS011;65439;50.948;6.988;2023-04-01T13:35:46;2.75;;;2.28;;
76574;SDS011;65439;50.948;6.988;2023-04-01T13:41:12;2.85;;;2.25;;
76574;SDS011;65439;50.948;6.988;2023-04-01T13:47:06;2.80;;;2.45;;
76574;SDS011;65439;50.948;6.988;2023-04-01T14:02:05;3.08;;;2.78;;
76574;SDS011;65439;50.948;6.988;2023-04-01T14:04:52;4.18;;;3.30;;
76574;SDS011;65439;50.948;6.988;2023-04-01T14:10:17;5.25;;;2.85;;
76574;SDS011;65439;50.948;6.988;2023-04-01T14:12:50;3.88;;;3.00;;
76574;SDS011;65439;50.948;6.988;2023-04-01T14:18:21;3.45;;;3.10;;
76574;SDS011;65439;50.948;6.988;2023-04-01T14:28:57;3.65;;;3.15;;
76574;SDS011;65439;50.948;6.988;2023-04-01T14:50:16;3.08;;;2.78;;
76574;SDS011;65439;50.948;6.988;2023-04-01T14:52:46;3.85;;;3.10;;
76574;SDS011;65439;50.948;6.988;2023-04-01T14:55:21;4.13;;;3.20;;
76574;SDS011;65439;50.948;6.988;2023-04-01T14:58:08;4.85;;;4.03;;
76574;SDS011;65439;50.948;6.988;2023-04-01T15:00:54;4.30;;;3.35;;
76574;SDS011;65439;50.948;6.988;2023-04-01T15:03:30;4.18;;;3.13;;
76574;SDS011;65439;50.948;6.988;2023-04-01T15:06:24;4.90;;;3.70;;
76574;SDS011;65439;50.948;6.988;2023-04-01T15:09:37;5.45;;;4.32;;
76574;SDS011;65439;50.948;6.988;2023-04-01T15:21:15;4.75;;;3.60;;
76574;SDS011;65439;50.948;6.988;2023-04-01T15:24:06;3.88;;;3.42;;
76574;SDS011;65439;50.948;6.988;2023-04-01T15:29:12;4.63;;;3.83;;
76574;SDS011;65439;50.948;6.988;2023-04-01T15:31:50;3.40;;;3.08;;
76574;SDS011;65439;50.948;6.988;2023-04-01T15:34:49;5.18;;;3.97;;
76574;SDS011;65439;50.948;6.988;2023-04-01T15:40:34;6.45;;;4.55;;
76574;SDS011;65439;50.948;6.988;2023-04-01T15:43:14;6.70;;;3.88;;
76574;SDS011;65439;50.948;6.988;2023-04-01T15:45:58;5.47;;;4.13;;
76574;SDS011;65439;50.948;6.988;2023-04-01T15:51:07;4.50;;;3.88;;
76574;SDS011;65439;50.948;6.988;2023-04-01T15:54:12;4.78;;;4.28;;
76574;SDS011;65439;50.948;6.988;2023-04-01T15:59:47;5.95;;;4.25;;
76574;SDS011;65439;50.948;6.988;2023-04-01T16:02:32;4.22;;;3.83;;
76574;SDS011;65439;50.948;6.988;2023-04-01T16:05:19;6.45;;;4.35;;
76574;SDS011;65439;50.948;6.988;2023-04-01T16:24:15;4.68;;;3.47;;
76574;SDS011;65439;50.948;6.988;2023-04-01T16:29:35;6.95;;;5.78;;
76574;SDS011;65439;50.948;6.988;2023-04-01T16:35:00;5.88;;;4.50;;
76574;SDS011;65439;50.948;6.988;2023-04-01T16:37:49;3.90;;;3.35;;
76574;SDS011;65439;50.948;6.988;2023-04-01T16:43:05;4.32;;;3.70;;
76574;SDS011;65439;50.948;6.988;2023-04-01T16:45:47;4.32;;;3.67;;
76574;SDS011;65439;50.948;6.988;2023-04-01T16:48:24;5.60;;;4.35;;
76574;SDS011;65439;50.948;6.988;2023-04-01T16:50:55;7.10;;;5.22;;
76574;SDS011;65439;50.948;6.988;2023-04-01T16:56:13;4.40;;;3.83;;
76574;SDS011;65439;50.948;6.988;2023-04-01T16:59:06;4.70;;;4.03;;
76574;SDS011;65439;50.948;6.988;2023-04-01T17:01:43;4.97;;;4.13;;
76574;SDS011;65439;50.948;6.988;2023-04-01T17:10:01;5.20;;;3.50;;
76574;SDS011;65439;50.948;6.988;2023-04-01T17:12:44;6.05;;;4.55;;
76574;SDS011;65439;50.948;6.988;2023-04-01T17:25:57;4.13;;;3.17;;
76574;SDS011;65439;50.948;6.988;2023-04-01T17:33:51;7.18;;;4.82;;
76574;SDS011;65439;50.948;6.988;2023-04-01T17:36:44;6.72;;;4.82;;
76574;SDS011;65439;50.948;6.988;2023-04-01T17:44:58;5.20;;;3.50;;
76574;SDS011;65439;50.948;6.988;2023-04-01T17:53:06;5.53;;;3.65;;
76574;SDS011;65439;50.948;6.988;2023-04-01T17:58:22;7.45;;;5.45;;
76574;SDS011;65439;50.948;6.988;2023-04-01T18:04:10;6.15;;;5.00;;
76574;SDS011;65439;50.948;6.988;2023-04-01T18:15:40;5.15;;;4.28;;
76574;SDS011;65439;50.948;6.988;2023-04-01T18:21:32;5.60;;;4.78;;
76574;SDS011;65439;50.948;6.988;2023-04-01T18:27:11;6.25;;;5.10;;
76574;SDS011;65439;50.948;6.988;2023-04-01T18:30:03;7.95;;;6.00;;
76574;SDS011;65439;50.948;6.988;2023-04-01T18:37:55;6.65;;;5.40;;
76574;SDS011;65439;50.948;6.988;2023-04-01T18:43:04;8.48;;;5.95;;
76574;SDS011;65439;50.948;6.988;2023-04-01T18:45:40;5.65;;;4.75;;
76574;SDS011;65439;50.948;6.988;2023-04-01T18:48:30;6.10;;;5.30;;
76574;SDS011;65439;50.948;6.988;2023-04-01T18:51:11;8.20;;;5.20;;
76574;SDS011;65439;50.948;6.988;2023-04-01T18:54:02;6.88;;;5.47;;
76574;SDS011;65439;50.948;6.988;2023-04-01T18:56:45;6.15;;;5.10;;
76574;SDS011;65439;50.948;6.988;2023-04-01T18:59:25;5.75;;;5.05;;
76574;SDS011;65439;50.948;6.988;2023-04-01T19:02:25;6.50;;;5.05;;
76574;SDS011;65439;50.948;6.988;2023-04-01T19:10:11;6.55;;;5.82;;
76574;SDS011;65439;50.948;6.988;2023-04-01T19:13:00;8.00;;;5.13;;
76574;SDS011;65439;50.948;6.988;2023-04-01T19:15:58;6.93;;;5.88;;
76574;SDS011;65439;50.948;6.988;2023-04-01T19:18:52;6.57;;;5.70;;
76574;SDS011;65439;50.948;6.988;2023-04-01T19:26:56;6.72;;;5.43;;
76574;SDS011;65439;50.948;6.988;2023-04-01T19:29:30;6.70;;;6.00;;
76574;SDS011;65439;50.948;6.988;2023-04-01T19:38:11;5.18;;;4.65;;
76574;SDS011;65439;50.948;6.988;2023-04-01T19:43:39;6.25;;;4.63;;
76574;SDS011;65439;50.948;6.988;2023-04-01T19:46:32;6.47;;;4.93;;
76574;SDS011;65439;50.948;6.988;2023-04-01T19:51:43;8.05;;;5.07;;
76574;SDS011;65439;50.948;6.988;2023-04-01T19:54:28;7.22;;;5.85;;
76574;SDS011;65439;50.948;6.988;2023-04-01T19:57:45;7.03;;;5.88;;
76574;SDS011;65439;50.948;6.988;2023-04-01T20:17:15;7.45;;;6.50;;
76574;SDS011;65439;50.948;6.988;2023-04-01T20:19:26;10.35;;;6.15;;
76574;SDS011;65439;50.948;6.988;2023-04-01T20:27:48;9.40;;;7.05;;
76574;SDS011;65439;50.948;6.988;2023-04-01T20:39:20;8.88;;;6.60;;
76574;SDS011;65439;50.948;6.988;2023-04-01T20:42:06;10.05;;;7.55;;
76574;SDS011;65439;50.948;6.988;2023-04-01T20:53:16;13.98;;;7.55;;
76574;SDS011;65439;50.948;6.988;2023-04-01T21:04:13;9.95;;;7.80;;
76574;SDS011;65439;50.948;6.988;2023-04-01T21:07:04;9.98;;;7.00;;
76574;SDS011;65439;50.948;6.988;2023-04-01T21:15:51;9.57;;;6.82;;
76574;SDS011;65439;50.948;6.988;2023-04-01T21:20:43;9.27;;;6.25;;
76574;SDS011;65439;50.948;6.988;2023-04-01T21:28:59;8.00;;;6.93;;
76574;SDS011;65439;50.948;6.988;2023-04-01T21:34:43;9.82;;;6.45;;
76574;SDS011;65439;50.948;6.988;2023-04-01T21:43:04;7.30;;;5.55;;
76574;SDS011;65439;50.948;6.988;2023-04-01T21:46:02;5.90;;;4.88;;
76574;SDS011;65439;50.948;6.988;2023-04-01T21:51:40;5.95;;;5.03;;
76574;SDS011;65439;50.948;6.988;2023-04-01T21:54:40;6.57;;;5.32;;
76574;SDS011;65439;50.948;6.988;2023-04-01T21:57:36;6.07;;;4.82;;
76574;SDS011;65439;50.948;6.988;2023-04-01T22:00:13;6.10;;;5.32;;
76574;SDS011;65439;50.948;6.988;2023-04-01T22:06:39;7.97;;;5.47;;
76574;SDS011;65439;50.948;6.988;2023-04-01T22:11:34;7.57;;;5.07;;
76574;SDS011;65439;50.948;6.988;2023-04-01T22:14:12;6.03;;;5.05;;
76574;SDS011;65439;50.948;6.988;2023-04-01T22:16:52;6.28;;;5.03;;
76574;SDS011;65439;50.948;6.988;2023-04-01T22:24:42;8.18;;;6.28;;
76574;SDS011;65439;50.948;6.988;2023-04-01T22:30:39;8.98;;;6.00;;
76574;SDS011;65439;50.948;6.988;2023-04-01T22:36:20;10.30;;;6.72;;
76574;SDS011;65439;50.948;6.988;2023-04-01T22:50:27;10.20;;;7.28;;
76574;SDS011;65439;50.948;6.988;2023-04-01T22:53:31;9.68;;;7.70;;
76574;SDS011;65439;50.948;6.988;2023-04-01T22:56:00;9.60;;;6.97;;
76574;SDS011;65439;50.948;6.988;2023-04-01T22:58:48;9.48;;;7.20;;
76574;SDS011;65439;50.948;6.988;2023-04-01T23:01:35;11.85;;;8.05;;
76574;SDS011;65439;50.948;6.988;2023-04-01T23:04:04;11.40;;;7.75;;
76574;SDS011;65439;50.948;6.988;2023-04-01T23:06:33;10.05;;;7.95;;
76574;SDS011;65439;50.948;6.988;2023-04-01T23:09:14;11.95;;;8.35;;
76574;SDS011;65439;50.948;6.988;2023-04-01T23:11:46;10.63;;;7.72;;
76574;SDS011;65439;50.948;6.988;2023-04-01T23:16:57;10.00;;;7.43;;
76574;SDS011;65439;50.948;6.988;2023-04-01T23:19:37;11.43;;;7.93;;
76574;SDS011;65439;50.948;6.988;2023-04-01T23:24:38;11.82;;;8.98;;
76574;SDS011;65439;50.948;6.988;2023-04-01T23:27:19;12.45;;;8.63;;
76574;SDS011;65439;50.948;6.988;2023-04-01T23:29:47;11.07;;;7.90;;
76574;SDS011;65439;50.948;6.988;2023-04-01T23:32:16;12.35;;;7.57;;
76574;SDS011;65439;50.948;6.988;2023-04-01T23:34:46;13.52;;;7.65;;
76574;SDS011;65439;50.948;6.988;2023-04-01T23:37:13;11.82;;;8.43;;
76574;SDS011;65439;50.948;6.988;2023-04-01T23:39:42;13.02;;;8.07;;
76574;SDS011;65439;50.948;6.988;2023-04-01T23:44:52;11.93;;;8.18;;
76574;SDS011;65439;50.948;6.988;2023-04-01T23:47:20;14.65;;;9.57;;
76574;SDS011;65439;50.948;6.988;2023-04-01T23:49:48;11.65;;;9.43;;
76574;SDS011;65439;50.948;6.988;2023-04-01T23:52:19;13.32;;;9.68;;
76574;SDS011;65439;50.948;6.988;2023-04-01T23:54:48;17.20;;;9.95;;
76574;SDS011;65439;50.948;6.988;2023-04-01T23:57:28;16.85;;;10.38;;
76574;SDS011;65439;50.948;6.988;2023-04-01T23:59:59;13.93;;;9.77;;
